Time;durP1;ratioP1;P1;durP2;ratioP2;P2;SDS_P1;SDS_P2;PMS_P1;PMS_P2;Temp;Humidity;BMP_temperature;BMP_pressure;BME280_temperature;BME280_humidity;BME280_pressure;Samples;Min_cycle;Max_cycle;Signal;HPM_P1;HPM_P2
2023/06/20 00:01:10;;;;;;;9.60;8.13;;;20.10;99.90;;;;;;5059220;28;20040;-90
2023/06/20 00:03:57;;;;;;;12.85;8.00;;;20.40;99.90;;;;;;5043388;28;20473;-90
2023/06/20 00:06:46;;;;;;;8.48;7.63;;;20.70;2.80;;;;;;5037371;28;20060;-90
2023/06/20 00:09:34;;;;;;;8.90;7.57;;;20.90;1.00;;;;;;5045369;28;20053;-89
2023/06/20 00:12:25;;;;;;;8.93;6.95;;;20.90;1.00;;;;;;5041967;28;20050;-89
2023/06/20 00:15:13;;;;;;;9.52;6.43;;;20.90;1.00;;;;;;5057355;28;20055;-92
2023/06/20 00:18:03;;;;;;;10.85;7.78;;;20.90;1.00;;;;;;5056527;28;20041;-90
2023/06/20 00:20:53;;;;;;;15.07;7.82;;;20.90;1.00;;;;;;5057065;28;20045;-90
2023/06/20 00:23:42;;;;;;;10.65;7.03;;;20.90;1.00;;;;;;5044179;28;20045;-89
2023/06/20 00:26:29;;;;;;;12.85;8.10;;;20.60;1.00;;;;;;5056907;28;20041;-89
2023/06/20 00:29:16;;;;;;;11.60;8.50;;;20.20;98.40;;;;;;5055081;28;20056;-89
2023/06/20 00:32:04;;;;;;;13.25;10.18;;;19.80;99.90;;;;;;5055936;28;20155;-88
2023/06/20 00:34:51;;;;;;;16.48;11.38;;;19.40;1.00;;;;;;5033205;28;20056;-85
2023/06/20 00:37:38;;;;;;;17.33;11.23;;;19.20;99.90;;;;;;5022695;28;20045;-88
2023/06/20 00:40:27;;;;;;;14.77;12.35;;;18.90;1.00;;;;;;5044742;28;20685;-90
2023/06/20 00:43:15;;;;;;;17.85;14.00;;;18.70;99.90;;;;;;5054869;28;20049;-89
2023/06/20 00:46:05;;;;;;;18.98;13.50;;;18.60;99.90;;;;;;5033938;28;20062;-89
2023/06/20 00:48:56;;;;;;;23.60;14.93;;;18.50;1.00;;;;;;5043981;28;20049;-90
2023/06/20 00:51:49;;;;;;;17.15;14.75;;;18.30;99.90;;;;;;5047475;28;20139;-91
2023/06/20 00:54:36;;;;;;;26.15;14.10;;;18.30;1.00;;;;;;5044661;28;20037;-91
2023/06/20 00:57:26;;;;;;;22.92;14.30;;;18.20;1.00;;;;;;5052226;28;20045;-87
2023/06/20 01:00:13;;;;;;;23.15;14.30;;;18.20;99.90;;;;;;5045005;28;20411;-90
2023/06/20 01:03:08;;;;;;;23.75;15.40;;;18.10;99.90;;;;;;5027968;28;20144;-85
2023/06/20 01:06:09;;;;;;;20.45;14.50;;;18.10;99.90;;;;;;5063266;28;20106;-87
2023/06/20 01:09:19;;;;;;;16.27;13.15;;;18.00;99.90;;;;;;5055047;28;20373;-86
2023/06/20 01:12:06;;;;;;;16.45;13.23;;;17.90;99.90;;;;;;5031080;28;20055;-87
2023/06/20 01:15:07;;;;;;;15.95;13.38;;;17.90;99.90;;;;;;5051007;28;20354;-88
2023/06/20 01:18:09;;;;;;;20.77;11.95;;;17.90;99.90;;;;;;5037661;28;20052;-85
2023/06/20 01:21:07;;;;;;;13.88;11.50;;;17.80;99.90;;;;;;5051245;28;20042;-84
2023/06/20 01:24:23;;;;;;;18.48;12.25;;;17.80;99.90;;;;;;5071105;28;20112;-84
2023/06/20 01:27:15;;;;;;;11.73;10.45;;;17.80;99.90;;;;;;5030339;28;20044;-86
2023/06/20 01:30:12;;;;;;;12.97;10.70;;;17.70;99.90;;;;;;5044358;28;20061;-88
2023/06/20 01:33:02;;;;;;;18.83;10.95;;;17.70;99.90;;;;;;5050151;28;20037;-87
2023/06/20 01:35:50;;;;;;;10.73;9.32;;;17.70;99.90;;;;;;5054453;28;20044;-86
2023/06/20 01:38:39;;;;;;;12.88;10.85;;;17.60;99.90;;;;;;5069145;28;20139;-87
2023/06/20 01:41:28;;;;;;;12.77;10.13;;;17.60;99.90;;;;;;5047085;28;20045;-84
2023/06/20 01:44:17;;;;;;;12.90;10.65;;;17.50;99.90;;;;;;5042740;28;20048;-85
2023/06/20 01:47:06;;;;;;;10.65;9.40;;;17.50;99.90;;;;;;5040223;28;20068;-88
2023/06/20 01:49:58;;;;;;;10.48;8.32;;;17.50;99.90;;;;;;5037839;28;20055;-86
2023/06/20 01:52:48;;;;;;;10.70;8.60;;;17.40;99.90;;;;;;5044184;28;20045;-88
2023/06/20 01:55:37;;;;;;;9.75;8.40;;;17.40;99.90;;;;;;5060307;28;20048;-85
2023/06/20 01:58:24;;;;;;;11.50;8.60;;;17.40;99.90;;;;;;5041465;28;20041;-86
2023/06/20 02:01:13;;;;;;;11.50;9.02;;;17.40;99.90;;;;;;5060666;28;20064;-86
2023/06/20 02:04:04;;;;;;;12.75;8.85;;;17.40;99.90;;;;;;5052709;28;20183;-88
2023/06/20 02:06:55;;;;;;;9.40;8.23;;;17.30;99.90;;;;;;5054261;28;20045;-87
2023/06/20 02:09:46;;;;;;;9.68;7.13;;;17.30;99.90;;;;;;5034136;28;20044;-88
2023/06/20 02:12:35;;;;;;;10.35;7.88;;;17.30;99.90;;;;;;5047902;28;20041;-86
2023/06/20 02:15:26;;;;;;;8.77;7.75;;;17.20;99.90;;;;;;5037754;28;20045;-87
2023/06/20 02:18:14;;;;;;;15.18;7.90;;;17.20;99.90;;;;;;5033109;28;20091;-87
2023/06/20 02:21:06;;;;;;;9.20;7.80;;;17.20;99.90;;;;;;5058447;28;20473;-87
2023/06/20 02:23:55;;;;;;;;;;;17.10;99.90;;;;;;5062059;28;20052;-89
2023/06/20 02:26:47;;;;;;;14.88;9.07;;;17.10;99.90;;;;;;5049561;28;20307;-87
2023/06/20 02:29:38;;;;;;;12.27;8.57;;;17.10;99.90;;;;;;5050398;28;20119;-88
2023/06/20 02:32:26;;;;;;;11.90;9.45;;;17.10;99.90;;;;;;5056433;28;20377;-89
2023/06/20 02:35:17;;;;;;;13.15;10.00;;;17.10;99.90;;;;;;5048343;28;20033;-87
2023/06/20 02:38:06;;;;;;;15.15;9.30;;;17.10;99.90;;;;;;5046926;28;20037;-87
2023/06/20 02:40:55;;;;;;;13.65;9.73;;;17.10;99.90;;;;;;5008597;28;20049;-89
2023/06/20 02:43:43;;;;;;;12.80;8.60;;;17.00;99.90;;;;;;5056699;28;20075;-88
2023/06/20 02:46:36;;;;;;;9.80;8.57;;;17.10;99.90;;;;;;5035466;28;20049;-89
2023/06/20 02:49:41;;;;;;;11.88;8.85;;;17.00;99.90;;;;;;5028441;28;20053;-89
2023/06/20 02:52:37;;;;;;;15.27;9.93;;;17.00;99.90;;;;;;5051474;28;20056;-89
2023/06/20 02:55:36;;;;;;;14.15;9.75;;;17.00;99.90;;;;;;5048197;28;20466;-88
2023/06/20 02:58:26;;;;;;;15.27;10.70;;;17.00;99.90;;;;;;5044187;28;20060;-88
2023/06/20 03:01:21;;;;;;;11.73;10.52;;;16.90;99.90;;;;;;5043556;28;20082;-90
2023/06/20 03:04:12;;;;;;;12.05;9.35;;;16.90;99.90;;;;;;5052917;28;20045;-88
2023/06/20 03:07:01;;;;;;;15.18;10.00;;;16.90;99.90;;;;;;5037108;28;20049;-89
2023/06/20 03:09:51;;;;;;;17.08;9.85;;;16.90;99.90;;;;;;5044331;28;20387;-89
2023/06/20 03:12:43;;;;;;;11.32;8.98;;;16.90;99.90;;;;;;5051918;28;20042;-87
2023/06/20 03:15:30;;;;;;;13.02;9.35;;;16.90;99.90;;;;;;5048466;28;20052;-88
2023/06/20 03:18:18;;;;;;;11.18;9.00;;;16.90;99.90;;;;;;5026145;28;20052;-88
2023/06/20 03:21:08;;;;;;;11.88;9.30;;;16.90;99.90;;;;;;5055373;28;20386;-87
2023/06/20 03:24:09;;;;;;;12.65;8.90;;;16.90;99.90;;;;;;5065660;28;20048;-85
2023/06/20 03:26:57;;;;;;;12.57;9.43;;;16.90;99.90;;;;;;5058315;28;20036;-88
2023/06/20 03:29:44;;;;;;;12.57;9.45;;;16.90;99.90;;;;;;5067919;28;20037;-89
2023/06/20 03:32:31;;;;;;;14.32;9.90;;;16.90;99.90;;;;;;5038957;28;20356;-89
2023/06/20 03:35:19;;;;;;;15.93;10.38;;;16.80;99.90;;;;;;5047294;28;20041;-89
2023/06/20 03:38:06;;;;;;;13.30;10.38;;;16.80;99.90;;;;;;5061592;28;20087;-88
2023/06/20 03:40:54;;;;;;;14.52;10.13;;;16.80;99.90;;;;;;5051736;28;20052;-87
2023/06/20 03:43:41;;;;;;;13.35;11.70;;;16.80;99.90;;;;;;5052326;28;20053;-89
2023/06/20 03:46:28;;;;;;;14.75;11.23;;;16.80;99.90;;;;;;5056055;28;20044;-89
2023/06/20 03:49:17;;;;;;;19.67;12.85;;;16.70;99.90;;;;;;5062647;28;20139;-88
2023/06/20 03:52:05;;;;;;;17.88;12.80;;;16.70;99.90;;;;;;5041092;28;20033;-89
2023/06/20 03:54:55;;;;;;;17.65;12.00;;;16.70;99.90;;;;;;5054030;28;20041;-87
2023/06/20 03:57:42;;;;;;;18.40;12.75;;;16.70;99.90;;;;;;5027182;28;20055;-85
2023/06/20 04:01:10;;;;;;;18.40;13.35;;;16.70;99.90;;;;;;5048643;28;20056;-90
2023/06/20 04:03:58;;;;;;;16.27;13.30;;;16.70;99.90;;;;;;5050403;28;20152;-89
2023/06/20 04:06:51;;;;;;;19.90;14.98;;;16.70;99.90;;;;;;5049263;28;20044;-90
2023/06/20 04:09:39;;;;;;;19.20;15.40;;;16.70;99.90;;;;;;5030258;28;20139;-89
2023/06/20 04:12:27;;;;;;;16.73;14.57;;;16.70;99.90;;;;;;5049972;28;20056;-89
2023/06/20 04:15:14;;;;;;;22.45;15.43;;;16.70;99.90;;;;;;5032862;28;20041;-89
2023/06/20 04:18:01;;;;;;;17.58;13.98;;;16.60;99.90;;;;;;5037717;28;20378;-89
2023/06/20 04:20:49;;;;;;;17.48;13.23;;;16.70;99.90;;;;;;5053011;28;20055;-90
2023/06/20 04:23:37;;;;;;;17.85;12.27;;;16.70;99.90;;;;;;5038169;28;20059;-88
2023/06/20 04:26:25;;;;;;;13.02;9.07;;;16.80;99.90;;;;;;5040721;28;20052;-90
2023/06/20 04:29:13;;;;;;;16.10;9.07;;;16.80;99.90;;;;;;5059428;28;20049;-90
2023/06/20 04:32:04;;;;;;;10.60;8.13;;;16.80;99.90;;;;;;5054422;28;20041;-90
2023/06/20 04:34:52;;;;;;;14.05;8.30;;;16.90;99.90;;;;;;5044132;28;20048;-92
2023/06/20 04:37:42;;;;;;;11.75;8.55;;;16.90;99.90;;;;;;5044289;28;20049;-92
2023/06/20 04:40:29;;;;;;;12.10;9.07;;;16.90;99.90;;;;;;5042787;28;20041;-91
2023/06/20 04:43:17;;;;;;;9.80;8.68;;;17.00;99.90;;;;;;5041128;28;20478;-90
2023/06/20 04:46:06;;;;;;;17.23;8.77;;;17.00;99.90;;;;;;5049894;28;20050;-90
2023/06/20 04:48:54;;;;;;;14.50;9.10;;;17.00;99.90;;;;;;5045783;28;20394;-90
2023/06/20 04:51:41;;;;;;;12.77;8.65;;;17.10;99.90;;;;;;5044016;28;20060;-90
2023/06/20 04:54:29;;;;;;;11.95;8.80;;;17.20;99.90;;;;;;5054645;28;20044;-89
2023/06/20 04:57:19;;;;;;;11.02;7.88;;;17.20;99.90;;;;;;5062329;28;20064;-90
2023/06/20 05:00:12;;;;;;;12.35;8.02;;;17.20;99.90;;;;;;5055343;28;20042;-91
2023/06/20 05:03:00;;;;;;;10.48;7.60;;;17.30;99.90;;;;;;5042254;28;20060;-92
2023/06/20 05:05:50;;;;;;;11.65;7.70;;;17.40;99.90;;;;;;5046879;28;20375;-90
2023/06/20 05:08:37;;;;;;;10.15;6.95;;;17.40;99.90;;;;;;5052747;28;20045;-92
2023/06/20 05:11:26;;;;;;;9.30;6.63;;;17.50;99.90;;;;;;5049246;28;20052;-89
2023/06/20 05:14:14;;;;;;;8.55;6.38;;;17.50;99.90;;;;;;5043340;28;20037;-87
2023/06/20 05:17:03;;;;;;;9.95;6.85;;;17.60;99.90;;;;;;5023405;28;20047;-88
2023/06/20 05:19:51;;;;;;;12.02;7.47;;;17.70;99.90;;;;;;5051973;28;20033;-87
2023/06/20 05:22:40;;;;;;;12.55;7.15;;;17.80;99.90;;;;;;5044575;28;20049;-90
2023/06/20 05:25:28;;;;;;;9.50;6.53;;;17.90;99.90;;;;;;5036234;28;20124;-88
2023/06/20 05:28:16;;;;;;;10.13;6.70;;;18.00;99.90;;;;;;5051908;28;20052;-86
2023/06/20 05:31:05;;;;;;;12.00;7.05;;;18.00;99.90;;;;;;5047347;28;20063;-88
2023/06/20 05:33:54;;;;;;;11.13;7.22;;;18.10;99.90;;;;;;5040707;28;20045;-89
2023/06/20 05:36:43;;;;;;;12.68;6.93;;;18.10;99.90;;;;;;5036003;28;20048;-89
2023/06/20 05:39:30;;;;;;;9.95;6.55;;;18.30;99.90;;;;;;5062551;28;20048;-89
2023/06/20 05:42:17;;;;;;;8.55;6.03;;;18.30;99.90;;;;;;5058534;28;20041;-91
2023/06/20 05:45:05;;;;;;;9.85;5.85;;;18.40;99.90;;;;;;5027083;28;20045;-88
2023/06/20 05:47:53;;;;;;;14.13;6.60;;;18.50;99.90;;;;;;5053836;28;20478;-88
2023/06/20 05:50:40;;;;;;;8.82;5.65;;;18.50;99.90;;;;;;5038650;28;20041;-89
2023/06/20 05:53:28;;;;;;;10.10;6.53;;;18.60;90.50;;;;;;5036064;28;20041;-87
2023/06/20 05:56:15;;;;;;;7.28;5.72;;;18.70;11.80;;;;;;5050178;28;20041;-87
2023/06/20 05:59:07;;;;;;;8.77;6.28;;;18.70;99.90;;;;;;5050073;28;20060;-89
2023/06/20 06:01:56;;;;;;;9.40;6.57;;;18.80;99.90;;;;;;5041817;28;20053;-88
2023/06/20 06:04:48;;;;;;;10.10;6.85;;;18.90;99.50;;;;;;5052485;28;20045;-91
2023/06/20 06:07:39;;;;;;;8.45;6.47;;;18.90;99.90;;;;;;5045348;28;20488;-89
2023/06/20 06:10:26;;;;;;;7.50;6.78;;;19.00;99.90;;;;;;5050301;28;20044;-88
2023/06/20 06:13:13;;;;;;;12.32;7.40;;;19.00;99.90;;;;;;5044009;28;20064;-88
2023/06/20 06:16:03;;;;;;;9.82;6.93;;;19.10;99.90;;;;;;5050137;28;20042;-88
2023/06/20 06:18:50;;;;;;;13.18;6.90;;;19.10;1.00;;;;;;5045085;28;20470;-87
2023/06/20 06:21:40;;;;;;;15.77;7.72;;;19.30;99.90;;;;;;5031203;28;20041;-90
2023/06/20 06:24:27;;;;;;;10.95;6.70;;;19.30;99.90;;;;;;5052683;28;20060;-88
2023/06/20 06:27:17;;;;;;;7.57;6.80;;;19.40;99.90;;;;;;5044090;28;20458;-87
2023/06/20 06:30:04;;;;;;;12.05;6.50;;;19.50;1.00;;;;;;5040380;28;20053;-88
2023/06/20 06:32:56;;;;;;;9.13;6.95;;;19.60;1.00;;;;;;5038372;28;20055;-89
2023/06/20 06:35:44;;;;;;;9.63;6.07;;;19.70;1.00;;;;;;5047580;28;20459;-90
2023/06/20 06:38:35;;;;;;;9.70;6.93;;;19.80;99.90;;;;;;5047882;28;20331;-91
2023/06/20 06:41:40;;;;;;;11.27;6.57;;;19.90;99.90;;;;;;5037386;28;20088;-92
2023/06/20 06:44:29;;;;;;;7.18;6.05;;;19.90;1.00;;;;;;5032323;28;20042;-93
2023/06/20 06:47:21;;;;;;;8.65;6.68;;;20.00;99.90;;;;;;5050948;28;20049;-94
2023/06/20 06:50:14;;;;;;;10.57;6.38;;;20.10;1.40;;;;;;5050212;28;20060;-91
2023/06/20 06:53:12;;;;;;;7.55;6.03;;;20.30;14.30;;;;;;5052295;28;20049;-93
2023/06/20 06:56:03;;;;;;;8.95;6.72;;;20.40;1.00;;;;;;5036742;28;20133;-87
2023/06/20 06:58:56;;;;;;;7.07;5.85;;;20.50;99.90;;;;;;5049511;28;20351;-89
2023/06/20 07:01:44;;;;;;;8.95;5.80;;;20.70;99.90;;;;;;5045308;28;20095;-91
2023/06/20 07:04:33;;;;;;;12.10;6.45;;;20.90;93.00;;;;;;5052356;28;20045;-92
2023/06/20 07:07:23;;;;;;;13.68;6.13;;;21.10;1.00;;;;;;5049903;28;20052;-90
2023/06/20 07:10:10;;;;;;;9.60;6.38;;;21.30;1.00;;;;;;5034737;28;20128;-87
2023/06/20 07:13:00;;;;;;;13.50;6.28;;;21.60;99.90;;;;;;5050655;28;20045;-89
2023/06/20 07:15:47;;;;;;;10.27;7.00;;;21.90;99.90;;;;;;5031971;28;20045;-91
2023/06/20 07:18:37;;;;;;;9.73;5.90;;;22.00;99.90;;;;;;5037385;28;20056;-90
2023/06/20 07:21:26;;;;;;;8.98;6.13;;;22.10;99.90;;;;;;5036460;28;20080;-92
2023/06/20 07:24:13;;;;;;;8.38;5.47;;;22.50;99.90;;;;;;5053690;28;20049;-91
2023/06/20 07:27:03;;;;;;;8.43;5.13;;;22.90;99.90;;;;;;5051904;28;20386;-90
2023/06/20 07:29:50;;;;;;;7.45;5.25;;;23.40;51.80;;;;;;5037643;28;20059;-90
2023/06/20 07:32:38;;;;;;;8.68;5.85;;;23.50;1.00;;;;;;5050202;28;20500;-89
2023/06/20 07:35:27;;;;;;;10.20;5.57;;;23.60;1.00;;;;;;5047886;28;20041;-86
2023/06/20 07:38:15;;;;;;;10.23;5.70;;;23.90;1.00;;;;;;5069476;28;20036;-86
2023/06/20 07:41:06;;;;;;;10.05;5.25;;;23.70;1.00;;;;;;5057379;28;20053;-88
2023/06/20 07:43:53;;;;;;;8.55;5.88;;;23.60;1.00;;;;;;5055603;28;20048;-89
2023/06/20 07:46:40;;;;;;;7.63;5.43;;;23.70;1.00;;;;;;5068394;28;20051;-90
2023/06/20 07:49:30;;;;;;;10.38;5.90;;;23.70;99.90;;;;;;5046671;28;20068;-90
2023/06/20 07:52:17;;;;;;;9.30;5.85;;;23.90;99.90;;;;;;5058787;28;20079;-92
2023/06/20 07:55:06;;;;;;;11.73;5.90;;;23.80;99.90;;;;;;5058291;28;20052;-91
2023/06/20 07:58:19;;;;;;;15.60;6.28;;;23.60;99.90;;;;;;5056613;28;20382;-91
2023/06/20 08:01:07;;;;;;;15.38;5.93;;;23.70;99.90;;;;;;5057911;28;20057;-93
2023/06/20 08:03:54;;;;;;;19.08;6.20;;;24.00;99.90;;;;;;5051751;28;20068;-91
2023/06/20 08:06:43;;;;;;;9.73;5.93;;;24.50;99.90;;;;;;5059239;28;20041;-87
2023/06/20 08:09:32;;;;;;;9.43;5.63;;;24.80;99.90;;;;;;5063918;28;20072;-89
2023/06/20 08:12:22;;;;;;;10.43;6.30;;;24.50;99.90;;;;;;5053234;28;20101;-88
2023/06/20 08:15:10;;;;;;;8.35;5.22;;;24.40;99.90;;;;;;5062015;28;20052;-89
2023/06/20 08:17:57;;;;;;;14.25;5.78;;;24.80;99.90;;;;;;5040623;28;20528;-89
2023/06/20 08:20:47;;;;;;;10.00;5.82;;;25.00;99.90;;;;;;5049267;28;20120;-92
2023/06/20 08:23:36;;;;;;;13.10;6.30;;;25.10;99.90;;;;;;5060270;28;20068;-91
2023/06/20 08:26:24;;;;;;;9.23;6.03;;;25.10;99.90;;;;;;5045083;28;20045;-91
2023/06/20 08:29:12;;;;;;;12.50;5.75;;;25.20;99.90;;;;;;5054695;28;20041;-93
2023/06/20 08:31:59;;;;;;;11.10;6.20;;;25.40;99.90;;;;;;5039131;28;20045;-89
2023/06/20 08:34:49;;;;;;;11.55;6.15;;;26.00;99.90;;;;;;5033975;28;20052;-90
2023/06/20 08:37:41;;;;;;;11.23;5.63;;;26.40;99.90;;;;;;5049625;28;20467;-89
2023/06/20 08:40:31;;;;;;;9.18;5.97;;;26.40;99.90;;;;;;5035801;28;20080;-87
2023/06/20 08:43:21;;;;;;;8.70;5.82;;;26.10;99.90;;;;;;5048298;28;20053;-91
2023/06/20 08:46:12;;;;;;;7.43;5.28;;;26.10;99.90;;;;;;5045763;28;20053;-91
2023/06/20 08:49:02;;;;;;;7.65;5.30;;;26.70;99.90;;;;;;5052254;28;20048;-93
2023/06/20 08:52:11;;;;;;;9.70;5.38;;;26.80;99.90;;;;;;5050415;28;20033;-93
2023/06/20 08:55:00;;;;;;;8.55;5.22;;;27.00;99.90;;;;;;5049449;28;20048;-91
2023/06/20 08:57:51;;;;;;;8.35;5.30;;;27.60;90.70;;;;;;5030842;28;20041;-91
2023/06/20 09:00:38;;;;;;;8.80;5.70;;;27.70;64.40;;;;;;5049981;28;20128;-89
2023/06/20 09:03:28;;;;;;;8.73;5.35;;;28.10;61.60;;;;;;5036161;28;20044;-91
2023/06/20 09:06:38;;;;;;;11.57;5.78;;;27.80;32.60;;;;;;5051875;28;20045;-92
2023/06/20 09:09:26;;;;;;;9.52;5.60;;;27.70;30.90;;;;;;5047726;28;20057;-89
2023/06/20 09:12:15;;;;;;;7.90;5.55;;;28.00;14.00;;;;;;5047252;28;20045;-89
2023/06/20 09:15:05;;;;;;;7.65;5.28;;;28.00;9.80;;;;;;5045339;28;20037;-91
2023/06/20 09:17:55;;;;;;;10.32;5.20;;;28.30;8.80;;;;;;5053471;28;20041;-89
2023/06/20 09:20:44;;;;;;;6.38;4.30;;;28.10;1.00;;;;;;5046885;28;20040;-93
2023/06/20 09:23:33;;;;;;;10.13;4.53;;;28.70;1.00;;;;;;5034302;28;20454;-89
2023/06/20 09:26:21;;;;;;;7.28;4.78;;;28.50;1.00;;;;;;5033309;28;20466;-92
2023/06/20 09:29:14;;;;;;;7.72;5.22;;;28.30;1.00;;;;;;5048778;28;20045;-91
2023/06/20 09:32:04;;;;;;;10.07;4.93;;;28.40;1.00;;;;;;5048022;28;20045;-90
2023/06/20 09:34:55;;;;;;;6.32;4.90;;;28.60;1.00;;;;;;5050445;28;20068;-90
2023/06/20 09:37:52;;;;;;;7.65;4.68;;;28.90;1.00;;;;;;5052716;28;20041;-91
2023/06/20 09:40:45;;;;;;;6.90;4.50;;;28.70;1.00;;;;;;5031957;28;20041;-90
2023/06/20 09:43:33;;;;;;;9.20;4.60;;;28.80;1.00;;;;;;5050653;28;20095;-91
2023/06/20 09:46:21;;;;;;;7.63;4.70;;;29.10;1.00;;;;;;5035016;28;20033;-89
2023/06/20 09:49:13;;;;;;;10.48;4.50;;;29.70;1.00;;;;;;5051765;28;20052;-88
2023/06/20 09:52:13;;;;;;;;;;;29.20;1.00;;;;;;5032141;28;20410;-93
2023/06/20 09:55:04;;;;;;;6.47;4.63;;;29.00;1.00;;;;;;5050360;28;19929;-92
2023/06/20 09:58:04;;;;;;;7.78;4.53;;;29.80;1.00;;;;;;5041376;28;20037;-90
2023/06/20 10:00:53;;;;;;;6.70;4.55;;;29.50;1.00;;;;;;5033474;28;20041;-92
2023/06/20 10:03:50;;;;;;;6.50;4.65;;;29.70;1.00;;;;;;5053621;28;20461;-92
2023/06/20 10:06:39;;;;;;;5.97;4.40;;;29.30;1.00;;;;;;5024415;28;20091;-92
2023/06/20 10:09:27;;;;;;;7.80;4.60;;;29.10;1.00;;;;;;5039739;28;20049;-89
2023/06/20 10:12:16;;;;;;;6.78;4.80;;;29.20;1.00;;;;;;5051308;28;20049;-93
2023/06/20 10:15:07;;;;;;;6.63;4.32;;;29.70;1.00;;;;;;5052023;28;20045;-94
2023/06/20 10:17:54;;;;;;;8.20;3.80;;;30.10;1.00;;;;;;5047663;28;20121;-90
2023/06/20 10:20:41;;;;;;;6.47;4.07;;;30.30;1.00;;;;;;5050676;28;20123;-88
2023/06/20 10:23:30;;;;;;;5.97;4.25;;;30.60;1.00;;;;;;5044766;28;20368;-90
2023/06/20 10:26:23;;;;;;;6.95;4.20;;;30.70;1.00;;;;;;5049991;28;20049;-92
2023/06/20 10:29:11;;;;;;;9.25;4.40;;;30.30;1.00;;;;;;5052012;28;20049;-93
2023/06/20 10:32:10;;;;;;;8.93;4.07;;;30.20;1.00;;;;;;5050830;28;20064;-92
2023/06/20 10:35:07;;;;;;;9.27;4.18;;;30.80;1.00;;;;;;5030030;28;20120;-89
2023/06/20 10:38:06;;;;;;;7.95;4.45;;;31.00;1.00;;;;;;5037106;28;20056;-87
2023/06/20 10:41:08;;;;;;;7.43;3.60;;;31.40;1.00;;;;;;5042024;28;20044;-88
2023/06/20 10:43:55;;;;;;;;;;;32.10;1.00;;;;;;5031479;28;20045;-89
2023/06/20 10:46:49;;;;;;;7.60;4.28;;;32.20;1.00;;;;;;5048338;28;19925;-88
2023/06/20 10:49:36;;;;;;;8.52;4.30;;;32.50;1.00;;;;;;5046002;28;20055;-89
2023/06/20 10:52:23;;;;;;;8.20;4.30;;;32.60;1.00;;;;;;5040248;28;20063;-86
2023/06/20 10:55:22;;;;;;;6.15;3.85;;;33.20;1.00;;;;;;5042122;28;20036;-89
2023/06/20 10:58:09;;;;;;;6.35;4.30;;;32.60;1.00;;;;;;5058489;28;20044;-90
2023/06/20 11:01:17;;;;;;;7.75;4.28;;;33.00;1.00;;;;;;5064171;28;20124;-86
2023/06/20 11:04:11;;;;;;;5.65;3.97;;;32.50;1.00;;;;;;5068033;28;20076;-87
2023/06/20 11:07:05;;;;;;;12.88;4.28;;;32.60;1.00;;;;;;5040372;28;20549;-88
2023/06/20 11:09:55;;;;;;;8.20;4.45;;;31.40;1.00;;;;;;5056255;28;20099;-86
2023/06/20 11:12:43;;;;;;;8.73;4.13;;;31.30;1.00;;;;;;5042067;28;20072;-89
2023/06/20 11:15:34;;;;;;;6.07;4.50;;;31.60;1.00;;;;;;5049875;28;20482;-88
2023/06/20 11:18:22;;;;;;;7.40;4.63;;;31.60;1.00;;;;;;5061220;28;20052;-92
2023/06/20 11:21:11;;;;;;;8.73;4.53;;;31.90;1.00;;;;;;5058228;28;20104;-89
2023/06/20 11:24:00;;;;;;;8.20;4.25;;;32.10;1.00;;;;;;5051178;28;20056;-86
2023/06/20 11:26:48;;;;;;;6.05;4.35;;;32.70;1.00;;;;;;5033414;28;20049;-89
2023/06/20 11:29:40;;;;;;;7.18;4.45;;;33.10;1.00;;;;;;5038752;28;20048;-87
2023/06/20 11:32:29;;;;;;;11.02;4.38;;;33.40;1.00;;;;;;5051482;28;20055;-89
2023/06/20 11:35:16;;;;;;;8.95;4.70;;;33.70;1.00;;;;;;5042491;28;20386;-91
2023/06/20 11:38:08;;;;;;;8.68;4.20;;;33.60;1.00;;;;;;5051707;28;20401;-92
2023/06/20 11:41:06;;;;;;;10.20;4.90;;;33.20;1.00;;;;;;5053552;28;20123;-93
2023/06/20 11:44:45;;;;;;;10.48;4.68;;;33.40;1.00;;;;;;5058431;28;20485;-93
2023/06/20 11:48:30;;;;;;;10.27;4.60;;;32.60;1.00;;;;;;5040477;28;20063;-90
2023/06/20 11:51:21;;;;;;;7.15;5.00;;;32.70;1.00;;;;;;4971969;28;20065;-90
2023/06/20 11:54:12;;;;;;;11.82;4.80;;;33.20;1.00;;;;;;5054047;28;20048;-88
2023/06/20 11:57:02;;;;;;;7.65;4.47;;;34.50;1.00;;;;;;5024678;28;20065;-88
2023/06/20 11:59:49;;;;;;;10.85;4.82;;;35.70;1.00;;;;;;5049635;28;20443;-88
2023/06/20 12:02:40;;;;;;;8.93;4.70;;;36.10;1.00;;;;;;5046724;28;20037;-89
2023/06/20 12:05:31;;;;;;;7.80;4.60;;;35.80;1.00;;;;;;5052449;28;20041;-86
2023/06/20 12:08:19;;;;;;;11.38;4.68;;;35.60;1.00;;;;;;5042442;28;20041;-86
2023/06/20 12:11:06;;;;;;;10.40;5.07;;;35.50;1.00;;;;;;5046659;28;20056;-88
2023/06/20 12:13:57;;;;;;;10.50;5.05;;;35.20;1.00;;;;;;5053437;28;20552;-88
2023/06/20 12:16:44;;;;;;;6.68;4.78;;;35.40;1.00;;;;;;5052774;28;20481;-89
2023/06/20 12:19:34;;;;;;;10.52;4.65;;;35.50;1.00;;;;;;5048563;28;20041;-88
2023/06/20 12:22:21;;;;;;;10.60;4.65;;;36.60;1.00;;;;;;5051648;28;20044;-90
2023/06/20 12:25:09;;;;;;;10.55;4.93;;;37.20;1.00;;;;;;5050139;28;20479;-88
2023/06/20 12:27:58;;;;;;;9.93;4.60;;;37.10;1.00;;;;;;5053217;28;20041;-87
2023/06/20 12:30:45;;;;;;;9.88;5.10;;;36.40;1.00;;;;;;5056679;28;20060;-89
2023/06/20 12:33:33;;;;;;;12.18;4.95;;;34.40;1.00;;;;;;5050818;28;20433;-88
2023/06/20 12:36:24;;;;;;;8.18;4.97;;;34.10;1.00;;;;;;5049329;28;20052;-88
2023/06/20 12:39:11;;;;;;;13.10;4.93;;;34.50;1.00;;;;;;5047617;28;20033;-87
2023/06/20 12:41:59;;;;;;;11.98;4.78;;;34.00;1.00;;;;;;5049820;28;20040;-85
2023/06/20 12:44:46;;;;;;;10.82;5.03;;;34.10;1.00;;;;;;5056739;28;20056;-90
2023/06/20 12:47:40;;;;;;;13.10;5.03;;;34.00;1.00;;;;;;5041568;28;20407;-89
2023/06/20 12:50:28;;;;;;;8.55;4.78;;;34.40;1.00;;;;;;5056087;28;20075;-84
2023/06/20 12:53:18;;;;;;;11.60;5.15;;;35.20;1.00;;;;;;5036535;28;20044;-88
2023/06/20 12:56:06;;;;;;;12.55;4.80;;;35.60;1.00;;;;;;5038987;28;20072;-86
2023/06/20 12:59:00;;;;;;;9.48;4.70;;;36.10;1.00;;;;;;5042426;28;20091;-89
2023/06/20 13:01:48;;;;;;;12.93;5.93;;;36.00;1.00;;;;;;5051568;28;20092;-85
2023/06/20 13:04:38;;;;;;;12.02;4.68;;;36.50;1.00;;;;;;5036567;28;20076;-87
2023/06/20 13:07:27;;;;;;;9.23;4.88;;;36.80;1.00;;;;;;5051617;28;20482;-88
2023/06/20 13:10:17;;;;;;;9.73;4.97;;;36.90;1.00;;;;;;5035039;28;20053;-88
2023/06/20 13:13:05;;;;;;;11.60;4.57;;;37.50;1.00;;;;;;5037846;28;20140;-89
2023/06/20 13:15:54;;;;;;;8.50;4.60;;;37.40;1.00;;;;;;5037622;28;20041;-90
2023/06/20 13:18:42;;;;;;;9.95;4.40;;;36.60;1.00;;;;;;5033293;28;20477;-90
2023/06/20 13:21:30;;;;;;;14.63;4.60;;;36.20;1.00;;;;;;5036675;28;20048;-87
2023/06/20 13:24:22;;;;;;;12.68;4.57;;;36.40;1.00;;;;;;5035360;28;20401;-88
2023/06/20 13:27:14;;;;;;;10.82;4.55;;;36.10;1.00;;;;;;5038502;28;20450;-89
2023/06/20 13:30:04;;;;;;;7.05;4.05;;;36.80;1.00;;;;;;5051531;28;20037;-88
2023/06/20 13:32:55;;;;;;;12.82;4.57;;;37.40;1.00;;;;;;5020972;28;20045;-87
2023/06/20 13:35:42;;;;;;;11.25;4.50;;;37.40;1.00;;;;;;5052274;28;20037;-88
2023/06/20 13:38:30;;;;;;;9.85;3.97;;;37.40;1.00;;;;;;5039654;28;20045;-88
2023/06/20 13:41:18;;;;;;;10.32;4.47;;;37.80;1.00;;;;;;5020399;28;20096;-87
2023/06/20 13:44:08;;;;;;;8.68;4.18;;;37.60;1.00;;;;;;5060017;28;20056;-90
2023/06/20 13:46:56;;;;;;;10.00;4.47;;;37.20;1.00;;;;;;5041087;28;20143;-86
2023/06/20 13:49:46;;;;;;;9.32;3.88;;;37.10;1.00;;;;;;5057977;28;20044;-88
2023/06/20 13:52:34;;;;;;;12.07;4.40;;;36.70;1.00;;;;;;5069618;28;20052;-90
2023/06/20 13:55:21;;;;;;;11.52;4.35;;;36.70;1.00;;;;;;5059693;28;20041;-89
2023/06/20 13:58:08;;;;;;;8.30;3.83;;;36.60;1.00;;;;;;5068141;28;20045;-91
2023/06/20 14:00:58;;;;;;;11.85;4.25;;;36.70;1.00;;;;;;5051595;28;20167;-89
2023/06/20 14:03:47;;;;;;;11.95;4.70;;;36.00;1.00;;;;;;5057398;28;20060;-90
2023/06/20 14:06:34;;;;;;;11.20;4.50;;;36.20;1.00;;;;;;5041746;28;20132;-89
2023/06/20 14:09:27;;;;;;;14.57;4.57;;;36.30;1.00;;;;;;5054794;28;20041;-88
2023/06/20 14:12:14;;;;;;;9.68;4.53;;;36.40;1.00;;;;;;5040201;28;20056;-89
2023/06/20 14:15:01;;;;;;;11.38;4.63;;;36.40;1.00;;;;;;5053828;28;20037;-89
2023/06/20 14:17:54;;;;;;;20.00;5.57;;;36.20;1.00;;;;;;5034870;28;20033;-88
2023/06/20 14:20:42;;;;;;;11.80;4.53;;;36.50;1.00;;;;;;5053794;28;20038;-89
2023/06/20 14:23:29;;;;;;;14.27;4.30;;;36.90;1.00;;;;;;5047015;28;20079;-87
2023/06/20 14:26:19;;;;;;;9.38;4.07;;;36.90;1.00;;;;;;5039175;28;20048;-88
2023/06/20 14:29:07;;;;;;;18.85;4.50;;;36.70;1.00;;;;;;5054685;28;20075;-91
2023/06/20 14:31:56;;;;;;;12.07;4.63;;;36.70;1.00;;;;;;5047348;28;20041;-89
2023/06/20 14:34:47;;;;;;;12.63;4.75;;;37.30;1.00;;;;;;5057256;28;20071;-86
2023/06/20 14:37:36;;;;;;;12.73;4.25;;;38.30;1.00;;;;;;5065135;28;20059;-86
2023/06/20 14:40:24;;;;;;;13.38;4.38;;;37.80;1.00;;;;;;5062339;28;20052;-87
2023/06/20 14:43:12;;;;;;;10.25;4.18;;;37.10;1.00;;;;;;5053441;28;20418;-87
2023/06/20 14:45:59;;;;;;;13.93;4.60;;;37.00;1.00;;;;;;5041262;28;20500;-88